Portada
METAR-TAF:

METAR-TAF

Aeroports :

Tirupati, Índia

latitud: 13-38-16N, longitud: 79-32-50E, altitud: 107 m

Observació

L'informe es va fer fa 38 minuts, a les 07:30 UTC
Vent 4 kt del Oest
Temperatura 29°C
Humitat 70%
Pressió 1006 hPa
Visibilitat: 6000 m
Núvols disperses a una alçada de 2000 ft
Núvols disperses a una alçada de 10000 ft

METAR: VOTP 230730Z 26004KT 6000 SCT020 SCT100 29/23 Q1006

Hora: 13:38 (08:08 UTC)

Pronòstic

L'informe es va fer fa 6 hores i 8 minuts, a les 02:00 UTC
Pronòstic vàlid del 23 a les 03 UTC al 23 a les 12 UTC
Vent 5 kt del Nord-Oest
Visibilitat: 6000 m
Núvols disperses a una alçada de 1500 ft
Núvols disperses a una alçada de 2000 ft
Cel ennuvolat a una alçada de 9000 ft
Temporalment
l' 23 a les 08 UTC al 23 a les 12 UTC
Escasses núvols a una alçada de 3000 ft, Cumulonimbus.

TAF: VOTP 230200Z 2303/2312 32005KT 6000 SCT015 SCT020 BKN090 TEMPO 2308/2312 FEW030CB

Observacions i pronòstics meteorològics de més de 4000 aeroports (METAR i TAF).

Les estacions disponibles són els punts grocs i vermells al mapa.

Posi el ratolí al punt desitjat per veure el nom de l'estació.

Feu clic per veure les observacions i els pronòstics meteorològics.

Per canviar el mapa: feu clic els botons verds amb una creu de color negre per apropar; al botó verd amb un guió per allunyar la imatge; o en les fletxes verdes per a mapes adjacents.


METAR-TAF: